createdAt,value
2017-12-14T00:00:20.635Z,9.30
2017-12-14T00:02:48.184Z,9.30
2017-12-14T00:05:15.712Z,9.30
2017-12-14T00:07:44.035Z,9.30
2017-12-14T00:10:11.589Z,9.30
2017-12-14T00:12:41.093Z,9.30
2017-12-14T00:15:08.635Z,9.30
2017-12-14T00:17:36.167Z,9.30
2017-12-14T00:20:03.739Z,9.40
2017-12-14T00:22:31.284Z,9.40
2017-12-14T00:25:00.083Z,9.40
2017-12-14T00:27:27.814Z,9.40
2017-12-14T00:29:55.375Z,9.40
2017-12-14T00:32:22.903Z,9.40
2017-12-14T00:34:50.447Z,9.40
2017-12-14T00:37:17.967Z,9.40
2017-12-14T00:39:46.251Z,9.30
2017-12-14T00:42:14.576Z,9.30
2017-12-14T00:44:42.095Z,9.20
2017-12-14T00:47:09.654Z,9.20
2017-12-14T00:49:37.181Z,9.30
2017-12-14T00:52:04.784Z,9.20
2017-12-14T00:54:33.525Z,9.20
2017-12-14T00:57:02.835Z,9.20
2017-12-14T00:59:32.807Z,9.20
2017-12-14T01:02:02.914Z,9.20
2017-12-14T01:04:32.009Z,9.20
2017-12-14T01:07:01.494Z,9.20
2017-12-14T01:09:30.041Z,9.20
2017-12-14T01:11:58.754Z,9.20
2017-12-14T01:14:28.493Z,9.20
2017-12-14T01:16:57.742Z,9.20
2017-12-14T01:19:27.018Z,9.20
2017-12-14T01:21:55.840Z,9.20
2017-12-14T01:24:26.954Z,9.20
2017-12-14T01:26:55.858Z,9.20
2017-12-14T01:29:24.580Z,9.20
2017-12-14T01:31:53.617Z,9.10
2017-12-14T01:34:24.130Z,9.10
2017-12-14T01:36:53.082Z,9.10
2017-12-14T01:39:21.709Z,9.00
2017-12-14T01:41:51.940Z,9.00
2017-12-14T01:44:20.666Z,9.00
2017-12-14T01:46:49.733Z,9.00
2017-12-14T01:49:18.663Z,9.00
2017-12-14T01:51:47.271Z,9.00
2017-12-14T01:54:16.214Z,9.00
2017-12-14T01:56:45.112Z,9.00
2017-12-14T01:59:14.886Z,9.00
2017-12-14T02:01:43.396Z,9.00
2017-12-14T02:04:13.140Z,9.00
2017-12-14T02:06:41.754Z,9.00
2017-12-14T02:09:11.712Z,9.00
2017-12-14T02:11:40.638Z,9.00
2017-12-14T02:14:10.582Z,9.00
2017-12-14T02:16:40.119Z,8.90
2017-12-14T02:19:09.200Z,8.90
2017-12-14T02:21:37.950Z,8.90
2017-12-14T02:24:07.019Z,8.90
2017-12-14T02:26:36.292Z,9.00
2017-12-14T02:29:05.131Z,8.90
2017-12-14T02:31:35.174Z,9.00
2017-12-14T02:34:03.875Z,8.90
2017-12-14T02:36:33.512Z,8.80
2017-12-14T02:39:02.211Z,8.80
2017-12-14T02:41:30.841Z,8.60
2017-12-14T02:43:59.719Z,8.30
2017-12-14T02:46:28.761Z,8.00
2017-12-14T02:48:59.010Z,7.80
2017-12-14T02:51:28.423Z,7.60
2017-12-14T02:53:57.457Z,7.40
2017-12-14T02:56:29.255Z,7.30
2017-12-14T02:58:58.530Z,7.20
2017-12-14T03:01:27.503Z,7.30
2017-12-14T03:03:57.671Z,7.30
2017-12-14T03:06:26.357Z,7.30
2017-12-14T03:08:55.902Z,7.40
2017-12-14T03:11:24.728Z,7.40
2017-12-14T03:13:53.646Z,7.40
2017-12-14T03:16:22.395Z,7.40
2017-12-14T03:18:51.111Z,7.40
2017-12-14T03:21:20.063Z,7.50
2017-12-14T03:23:49.004Z,7.50
2017-12-14T03:26:17.956Z,7.50
2017-12-14T03:28:46.905Z,7.60
2017-12-14T03:31:16.919Z,7.50
2017-12-14T03:33:45.655Z,7.60
2017-12-14T03:36:15.160Z,7.70
2017-12-14T03:38:43.930Z,7.70
2017-12-14T03:41:14.517Z,7.80
2017-12-14T03:43:44.573Z,7.80
2017-12-14T03:46:13.932Z,7.80
2017-12-14T03:48:43.641Z,7.80
2017-12-14T03:51:11.200Z,7.90
2017-12-14T03:53:38.727Z,7.90
2017-12-14T03:56:07.058Z,8.00
2017-12-14T03:58:34.586Z,8.00
2017-12-14T04:01:02.130Z,8.00
2017-12-14T04:03:30.452Z,8.00
2017-12-14T04:05:57.983Z,8.00
2017-12-14T04:08:25.532Z,8.00
2017-12-14T04:10:53.062Z,8.00
2017-12-14T04:13:20.615Z,8.00
2017-12-14T04:15:48.144Z,8.00
2017-12-14T04:18:15.692Z,8.00
2017-12-14T04:20:44.175Z,8.10
2017-12-14T04:23:12.711Z,8.10
2017-12-14T04:25:41.015Z,7.30
2017-12-14T04:28:08.577Z,7.30
2017-12-14T04:30:36.116Z,6.60
2017-12-14T04:33:04.409Z,5.60
2017-12-14T04:35:31.970Z,5.60
2017-12-14T04:38:00.482Z,5.20
2017-12-14T04:40:28.055Z,4.80
2017-12-14T04:42:56.536Z,4.40
2017-12-14T04:45:24.087Z,4.30
2017-12-14T04:47:51.619Z,4.00
2017-12-14T04:50:19.186Z,3.80
2017-12-14T04:52:46.715Z,3.70
2017-12-14T04:55:15.268Z,3.60
2017-12-14T04:57:43.579Z,3.60
2017-12-14T05:00:11.143Z,3.60
2017-12-14T05:02:38.680Z,3.70
2017-12-14T05:05:06.861Z,3.60
2017-12-14T05:07:34.411Z,3.60
2017-12-14T05:10:02.710Z,3.50
2017-12-14T05:12:32.252Z,3.50
2017-12-14T05:14:59.799Z,3.50
2017-12-14T05:17:27.375Z,3.50
2017-12-14T05:19:54.913Z,3.50
2017-12-14T05:22:22.467Z,3.50
2017-12-14T05:24:50.004Z,3.50
2017-12-14T05:27:17.567Z,3.50
2017-12-14T05:29:46.080Z,3.60
2017-12-14T05:32:13.613Z,3.60
2017-12-14T05:34:41.264Z,3.60
2017-12-14T05:37:08.795Z,3.60
2017-12-14T05:39:37.140Z,3.70
2017-12-14T05:42:05.870Z,3.70
2017-12-14T05:44:34.166Z,3.80
2017-12-14T05:47:02.974Z,3.80
2017-12-14T05:49:30.500Z,3.90
2017-12-14T05:51:58.063Z,3.90
2017-12-14T05:54:25.618Z,3.80
2017-12-14T05:56:53.916Z,3.80
2017-12-14T05:59:21.449Z,3.80
2017-12-14T06:01:49.785Z,3.90
2017-12-14T06:04:17.314Z,3.90
2017-12-14T06:06:44.849Z,3.90
2017-12-14T06:09:12.404Z,3.90
2017-12-14T06:11:39.936Z,3.90
2017-12-14T06:14:08.227Z,3.90
2017-12-14T06:16:37.827Z,3.90
2017-12-14T06:19:07.287Z,4.00
2017-12-14T06:21:34.851Z,3.90
2017-12-14T06:24:02.415Z,4.00
2017-12-14T06:26:29.947Z,4.00
2017-12-14T06:28:57.479Z,4.00
2017-12-14T06:31:25.040Z,4.00
2017-12-14T06:33:52.568Z,4.10
2017-12-14T06:36:20.099Z,4.00
2017-12-14T06:38:47.650Z,4.00
2017-12-14T06:41:15.189Z,4.10
2017-12-14T06:43:42.753Z,4.00
2017-12-14T06:46:10.283Z,4.00
2017-12-14T06:48:37.822Z,4.00
2017-12-14T06:51:05.380Z,4.00
2017-12-14T06:53:32.903Z,4.00
2017-12-14T06:56:00.461Z,3.90
2017-12-14T06:58:28.006Z,3.90
2017-12-14T07:00:55.586Z,3.90
2017-12-14T07:03:29.947Z,3.90
2017-12-14T07:05:57.479Z,3.80
2017-12-14T07:08:25.011Z,3.80
2017-12-14T07:10:54.518Z,3.80
2017-12-14T07:13:22.047Z,3.80
2017-12-14T07:15:49.621Z,3.70
2017-12-14T07:18:17.151Z,3.70
2017-12-14T07:20:45.447Z,3.60
2017-12-14T07:23:12.999Z,3.60
2017-12-14T07:25:40.530Z,3.60
2017-12-14T07:28:08.091Z,3.60
2017-12-14T07:30:35.618Z,3.70
2017-12-14T07:33:03.150Z,3.70
2017-12-14T07:35:30.700Z,3.70
2017-12-14T07:37:58.230Z,3.70
2017-12-14T07:40:26.567Z,3.70
2017-12-14T07:43:08.059Z,3.70
2017-12-14T07:48:34.764Z,3.70
2017-12-14T07:51:02.324Z,3.70
2017-12-14T07:53:29.866Z,3.70
2017-12-14T07:55:57.406Z,3.70
2017-12-14T07:58:24.955Z,3.90
2017-12-14T08:00:52.489Z,3.90
2017-12-14T08:03:22.030Z,3.90
2017-12-14T08:05:49.552Z,3.90
2017-12-14T08:08:17.207Z,3.90
2017-12-14T08:10:44.731Z,4.00
2017-12-14T08:13:12.261Z,4.00
2017-12-14T08:15:39.811Z,4.00
2017-12-14T08:18:07.333Z,4.00
2017-12-14T08:20:34.867Z,4.00
2017-12-14T08:23:02.657Z,4.10
2017-12-14T08:25:30.183Z,4.10
2017-12-14T08:27:57.740Z,4.10
2017-12-14T08:30:25.305Z,4.10
2017-12-14T08:32:52.860Z,4.00
2017-12-14T08:35:20.394Z,4.10
2017-12-14T08:37:47.916Z,4.10
2017-12-14T08:40:15.472Z,4.10
2017-12-14T08:42:43.992Z,4.10
2017-12-14T08:45:11.551Z,4.10
2017-12-14T08:47:42.869Z,4.20
2017-12-14T08:50:12.411Z,4.20
2017-12-14T08:52:39.931Z,4.30
2017-12-14T08:55:07.460Z,4.40
2017-12-14T08:57:35.771Z,4.50
2017-12-14T09:00:03.340Z,4.40
2017-12-14T09:02:30.891Z,4.50
2017-12-14T09:04:58.416Z,4.60
2017-12-14T09:07:26.746Z,4.70
2017-12-14T09:09:54.301Z,4.70
2017-12-14T09:12:21.834Z,4.80
2017-12-14T09:14:49.384Z,4.90
2017-12-14T09:17:16.914Z,5.10
2017-12-14T09:19:45.227Z,5.20
2017-12-14T09:22:12.760Z,5.20
2017-12-14T09:24:40.332Z,5.30
2017-12-14T09:27:07.869Z,5.40
2017-12-14T09:29:35.399Z,5.50
2017-12-14T09:32:02.946Z,5.60
2017-12-14T09:34:30.467Z,5.60
2017-12-14T09:36:58.049Z,5.70
2017-12-14T09:39:25.600Z,5.60
2017-12-14T09:41:53.148Z,5.60
2017-12-14T09:44:21.583Z,5.60
2017-12-14T09:46:49.896Z,5.60
2017-12-14T09:49:19.399Z,5.60
2017-12-14T09:51:46.926Z,5.70
2017-12-14T09:54:15.251Z,5.80
2017-12-14T09:56:42.775Z,5.80
2017-12-14T09:59:12.296Z,5.70
2017-12-14T10:01:40.589Z,5.90
2017-12-14T10:04:09.088Z,5.80
2017-12-14T10:06:36.631Z,5.80
2017-12-14T10:09:04.170Z,5.90
2017-12-14T10:11:32.500Z,5.80
2017-12-14T10:14:00.023Z,5.80
2017-12-14T10:16:27.548Z,5.90
2017-12-14T10:18:56.837Z,5.90
2017-12-14T10:21:25.356Z,5.80
2017-12-14T10:23:52.960Z,6.00
2017-12-14T10:26:20.485Z,6.00
2017-12-14T10:28:48.055Z,6.00
2017-12-14T10:31:15.616Z,6.00
2017-12-14T10:33:43.155Z,5.90
2017-12-14T10:36:10.731Z,6.00
2017-12-14T10:38:38.255Z,6.10
2017-12-14T10:41:06.555Z,6.00
2017-12-14T10:43:34.100Z,6.00
2017-12-14T10:46:01.619Z,6.00
2017-12-14T10:48:29.207Z,5.90
2017-12-14T10:50:56.763Z,6.00
2017-12-14T10:53:24.357Z,6.00
2017-12-14T10:55:51.872Z,6.00
2017-12-14T10:58:19.394Z,6.10
2017-12-14T11:00:52.597Z,6.20
2017-12-14T11:03:20.136Z,6.20
2017-12-14T11:05:47.698Z,6.10
2017-12-14T11:08:16.188Z,6.10
2017-12-14T11:10:43.742Z,6.10
2017-12-14T11:13:11.267Z,6.00
2017-12-14T11:15:38.798Z,6.10
2017-12-14T11:18:06.380Z,6.20
2017-12-14T11:20:34.875Z,6.30
2017-12-14T11:23:02.442Z,6.30
2017-12-14T11:25:30.948Z,6.30
2017-12-14T11:27:59.472Z,6.30
2017-12-14T11:30:29.001Z,6.30
2017-12-14T11:32:56.599Z,6.50
2017-12-14T11:35:24.291Z,6.60
2017-12-14T11:37:51.893Z,6.70
2017-12-14T11:40:19.482Z,6.90
2017-12-14T11:42:47.030Z,7.00
2017-12-14T11:45:14.651Z,6.90
2017-12-14T11:47:42.212Z,6.90
2017-12-14T11:50:09.786Z,6.80
2017-12-14T11:52:37.372Z,6.70
2017-12-14T11:55:05.838Z,6.80
2017-12-14T11:57:33.390Z,6.80
2017-12-14T12:00:00.955Z,6.70
2017-12-14T12:02:28.495Z,6.60
2017-12-14T12:04:56.056Z,6.60
2017-12-14T12:07:23.595Z,6.80
2017-12-14T12:09:51.133Z,7.00
2017-12-14T12:12:18.698Z,6.90
2017-12-14T12:14:47.195Z,7.10
2017-12-14T12:17:15.533Z,7.10
2017-12-14T12:19:43.067Z,7.10
2017-12-14T12:22:10.587Z,7.10
2017-12-14T12:24:38.159Z,7.20
2017-12-14T12:27:05.691Z,7.30
2017-12-14T12:29:33.272Z,7.30
2017-12-14T12:32:01.783Z,7.40
2017-12-14T12:34:29.337Z,7.30
2017-12-14T12:36:56.858Z,7.30
2017-12-14T12:39:24.391Z,7.40
2017-12-14T12:41:51.960Z,7.50
2017-12-14T12:44:19.478Z,7.50
2017-12-14T12:46:47.028Z,7.40
2017-12-14T12:49:14.543Z,7.40
2017-12-14T12:51:42.102Z,7.60
2017-12-14T12:54:09.651Z,7.50
2017-12-14T12:56:37.169Z,7.50
2017-12-14T12:59:04.723Z,7.60
2017-12-14T13:01:33.216Z,7.50
2017-12-14T13:04:00.765Z,7.40
2017-12-14T13:06:28.295Z,7.40
2017-12-14T13:08:57.601Z,7.50
2017-12-14T13:11:25.898Z,7.50
2017-12-14T13:13:53.423Z,7.50
2017-12-14T13:16:20.980Z,7.40
2017-12-14T13:18:49.263Z,7.40
2017-12-14T13:21:17.595Z,7.30
2017-12-14T13:23:45.744Z,7.30
2017-12-14T13:26:13.392Z,7.40
2017-12-14T13:28:41.939Z,7.40
2017-12-14T13:31:10.227Z,7.40
2017-12-14T13:33:39.519Z,7.30
2017-12-14T13:36:07.049Z,7.30
2017-12-14T13:38:34.583Z,7.20
2017-12-14T13:41:02.145Z,7.30
2017-12-14T13:43:29.662Z,7.30
2017-12-14T13:45:57.980Z,7.30
2017-12-14T13:48:25.507Z,7.20
2017-12-14T13:50:53.045Z,7.30
2017-12-14T13:53:20.601Z,7.30
2017-12-14T13:55:48.127Z,7.30
2017-12-14T13:58:15.675Z,7.30
2017-12-14T14:00:43.200Z,7.20
2017-12-14T14:03:10.719Z,7.20
2017-12-14T14:05:38.279Z,7.20
2017-12-14T14:08:05.807Z,7.10
2017-12-14T14:10:33.360Z,7.10
2017-12-14T14:13:00.891Z,7.10
2017-12-14T14:15:28.439Z,7.00
2017-12-14T14:17:55.992Z,7.00
2017-12-14T14:20:23.518Z,7.00
2017-12-14T14:22:51.075Z,7.00
2017-12-14T14:25:18.611Z,7.00
2017-12-14T14:27:46.172Z,6.90
2017-12-14T14:30:13.989Z,6.90
2017-12-14T14:32:42.479Z,6.90
2017-12-14T14:35:10.027Z,6.80
2017-12-14T14:37:38.315Z,6.80
2017-12-14T14:40:07.546Z,6.80
2017-12-14T14:42:35.078Z,6.70
2017-12-14T14:45:03.408Z,6.80
2017-12-14T14:47:30.935Z,6.80
2017-12-14T14:49:58.468Z,6.90
2017-12-14T14:52:26.023Z,6.90
2017-12-14T14:54:53.544Z,6.90
2017-12-14T14:57:21.098Z,6.80
2017-12-14T14:59:48.655Z,6.90
2017-12-14T15:02:16.211Z,6.90
2017-12-14T15:04:43.750Z,6.90
2017-12-14T15:07:11.277Z,6.90
2017-12-14T15:09:38.831Z,6.90
2017-12-14T15:12:07.114Z,6.90
2017-12-14T15:14:34.673Z,6.90
2017-12-14T15:17:02.200Z,7.00
2017-12-14T15:19:29.720Z,7.00
2017-12-14T15:21:57.300Z,7.00
2017-12-14T15:24:24.898Z,7.00
2017-12-14T15:26:52.455Z,7.00
2017-12-14T15:29:21.755Z,7.00
2017-12-14T15:31:49.319Z,6.90
2017-12-14T15:34:16.869Z,6.90
2017-12-14T15:36:44.399Z,6.90
2017-12-14T15:39:11.942Z,6.90
2017-12-14T15:41:39.472Z,6.90
2017-12-14T15:44:07.018Z,6.90
2017-12-14T15:46:35.494Z,6.90
2017-12-14T15:49:03.789Z,6.80
2017-12-14T15:51:31.348Z,6.80
2017-12-14T15:53:58.866Z,6.80
2017-12-14T15:56:26.418Z,6.70
2017-12-14T15:58:53.942Z,6.70
2017-12-14T16:01:21.510Z,6.70
2017-12-14T16:03:49.056Z,6.80
2017-12-14T16:06:16.586Z,6.80
2017-12-14T16:08:44.987Z,6.80
2017-12-14T16:11:12.554Z,6.80
2017-12-14T16:13:40.122Z,6.80
2017-12-14T16:16:07.644Z,6.80
2017-12-14T16:18:35.183Z,6.80
2017-12-14T16:21:03.723Z,6.70
2017-12-14T16:23:31.252Z,6.60
2017-12-14T16:25:58.796Z,6.40
2017-12-14T16:28:27.074Z,6.20
2017-12-14T16:30:55.390Z,6.10
2017-12-14T16:33:22.909Z,6.10
2017-12-14T16:35:51.191Z,6.00
2017-12-14T16:38:18.743Z,6.00
2017-12-14T16:40:46.320Z,5.90
2017-12-14T16:43:13.959Z,5.90
2017-12-14T16:45:42.272Z,5.80
2017-12-14T16:48:09.821Z,5.80
2017-12-14T16:50:37.366Z,5.80
2017-12-14T16:53:04.891Z,5.90
2017-12-14T16:55:32.415Z,5.90
2017-12-14T16:58:01.930Z,5.90
2017-12-14T17:00:30.439Z,5.90
2017-12-14T17:02:59.943Z,5.90
2017-12-14T17:05:28.235Z,6.00
2017-12-14T17:07:55.754Z,6.00
2017-12-14T17:10:24.259Z,6.10
2017-12-14T17:12:51.779Z,6.10
2017-12-14T17:15:19.338Z,6.00
2017-12-14T17:17:47.862Z,6.00
2017-12-14T17:20:15.383Z,6.10
2017-12-14T17:22:42.926Z,6.00
2017-12-14T17:25:10.446Z,6.10
2017-12-14T17:27:39.978Z,6.20
2017-12-14T17:30:08.452Z,6.20
2017-12-14T17:32:36.136Z,6.30
2017-12-14T17:35:03.691Z,6.20
2017-12-14T17:37:31.207Z,6.20
2017-12-14T17:39:58.767Z,6.20
2017-12-14T17:42:26.297Z,6.10
2017-12-14T17:44:53.818Z,6.10
2017-12-14T17:47:21.939Z,6.10
2017-12-14T17:49:49.461Z,6.20
2017-12-14T17:52:17.017Z,6.10
2017-12-14T17:54:44.540Z,6.20
2017-12-14T17:57:12.828Z,6.20
2017-12-14T17:59:41.163Z,6.20
2017-12-14T18:02:08.720Z,6.10
2017-12-14T18:04:36.275Z,6.10
2017-12-14T18:07:03.808Z,6.10
2017-12-14T18:09:31.618Z,6.10
2017-12-14T18:11:59.183Z,6.10
2017-12-14T18:14:27.471Z,6.20
2017-12-14T18:16:55.792Z,6.10
2017-12-14T18:19:23.327Z,6.10
2017-12-14T18:21:52.446Z,6.10
2017-12-14T18:24:20.115Z,6.10
2017-12-14T18:26:47.656Z,6.10
2017-12-14T18:29:15.274Z,6.00
2017-12-14T18:31:42.843Z,6.00
2017-12-14T18:34:10.399Z,6.10
2017-12-14T18:36:37.923Z,6.10
2017-12-14T18:39:05.454Z,6.10
2017-12-14T18:41:33.179Z,6.20
2017-12-14T18:44:01.518Z,6.20
2017-12-14T18:46:29.080Z,6.20
2017-12-14T18:48:56.622Z,6.30
2017-12-14T18:51:24.167Z,6.30
2017-12-14T18:53:53.980Z,6.30
2017-12-14T18:56:21.507Z,6.40
2017-12-14T18:58:49.056Z,6.40
2017-12-14T19:01:16.609Z,6.30
2017-12-14T19:03:44.152Z,6.30
2017-12-14T19:06:11.711Z,6.30
2017-12-14T19:08:39.229Z,6.30
2017-12-14T19:11:06.776Z,6.30
2017-12-14T19:13:34.299Z,6.40
2017-12-14T19:16:01.815Z,6.40
2017-12-14T19:18:31.300Z,6.40
2017-12-14T19:20:58.823Z,6.40
2017-12-14T19:23:27.163Z,6.40
2017-12-14T19:25:55.675Z,6.40
2017-12-14T19:28:24.151Z,6.40
2017-12-14T19:30:51.710Z,6.30
2017-12-14T19:33:19.995Z,6.30
2017-12-14T19:35:47.540Z,6.30
2017-12-14T19:38:15.115Z,6.30
2017-12-14T19:40:43.416Z,6.10
2017-12-14T19:43:10.945Z,6.10
2017-12-14T19:45:40.391Z,6.10
2017-12-14T19:48:07.919Z,6.00
2017-12-14T19:50:36.216Z,6.00
2017-12-14T19:53:03.767Z,6.00
2017-12-14T19:55:31.295Z,5.90
2017-12-14T19:57:58.814Z,5.90
2017-12-14T20:00:26.392Z,5.90
2017-12-14T20:02:53.913Z,5.90
2017-12-14T20:05:21.667Z,5.90
2017-12-14T20:07:49.186Z,5.90
2017-12-14T20:10:17.680Z,5.90
2017-12-14T20:12:45.239Z,6.00
2017-12-14T20:15:12.864Z,6.00
2017-12-14T20:17:40.432Z,6.00
2017-12-14T20:20:07.955Z,6.10
2017-12-14T20:22:36.792Z,6.10
2017-12-14T20:25:04.354Z,6.10
2017-12-14T20:27:33.083Z,6.20
2017-12-14T20:30:00.630Z,6.20
2017-12-14T20:32:28.160Z,6.20
2017-12-14T20:34:55.701Z,6.20
2017-12-14T20:37:23.258Z,6.10
2017-12-14T20:39:50.795Z,6.10
2017-12-14T20:42:19.302Z,6.20
2017-12-14T20:44:46.830Z,6.20
2017-12-14T20:47:14.396Z,6.30
2017-12-14T20:49:41.903Z,6.20
2017-12-14T20:52:09.428Z,6.20
2017-12-14T20:54:36.983Z,6.10
2017-12-14T20:57:04.504Z,6.10
2017-12-14T20:59:34.080Z,6.00
2017-12-14T21:02:01.621Z,6.00
2017-12-14T21:04:29.143Z,6.00
2017-12-14T21:06:56.688Z,6.10
2017-12-14T21:09:24.211Z,6.10
2017-12-14T21:11:51.756Z,6.20
2017-12-14T21:14:19.292Z,6.20
2017-12-14T21:16:47.805Z,6.30
2017-12-14T21:19:15.344Z,6.30
2017-12-14T21:21:43.223Z,6.30
2017-12-14T21:24:11.065Z,6.20
2017-12-14T21:26:38.591Z,6.10
2017-12-14T21:29:06.121Z,6.10
2017-12-14T21:31:33.672Z,6.00
2017-12-14T21:34:01.203Z,6.00
2017-12-14T21:36:28.751Z,6.00
2017-12-14T21:38:56.282Z,6.00
2017-12-14T21:41:25.736Z,6.10
2017-12-14T21:43:53.370Z,6.00
2017-12-14T21:46:20.892Z,6.00
2017-12-14T21:48:49.203Z,5.90
2017-12-14T21:51:16.743Z,5.90
2017-12-14T21:53:45.031Z,5.90
2017-12-14T21:56:12.588Z,5.90
2017-12-14T21:58:40.107Z,5.90
2017-12-14T22:01:07.668Z,6.00
2017-12-14T22:03:35.203Z,6.00
2017-12-14T22:06:02.744Z,6.00
2017-12-14T22:08:30.306Z,6.10
2017-12-14T22:10:57.855Z,6.10
2017-12-14T22:13:25.410Z,6.10
2017-12-14T22:15:52.956Z,6.10
2017-12-14T22:18:20.482Z,6.20
2017-12-14T22:20:48.815Z,6.10
2017-12-14T22:23:16.348Z,6.10
2017-12-14T22:25:43.903Z,6.10
2017-12-14T22:28:11.436Z,6.10
2017-12-14T22:30:38.971Z,6.10
2017-12-14T22:33:06.523Z,6.20
2017-12-14T22:35:34.050Z,6.30
2017-12-14T22:38:01.576Z,6.30
2017-12-14T22:40:29.891Z,6.30
2017-12-14T22:42:58.423Z,6.20
2017-12-14T22:45:26.031Z,6.10
2017-12-14T22:47:53.560Z,6.00
2017-12-14T22:50:21.852Z,5.80
2017-12-14T22:52:51.679Z,5.80
2017-12-14T22:55:19.211Z,5.70
2017-12-14T22:57:46.782Z,5.70
2017-12-14T23:00:15.272Z,5.60
2017-12-14T23:02:42.807Z,5.60
2017-12-14T23:05:11.127Z,5.50
2017-12-14T23:07:38.692Z,5.50
2017-12-14T23:10:06.875Z,5.60
2017-12-14T23:12:34.413Z,5.60
2017-12-14T23:15:01.939Z,5.60
2017-12-14T23:17:30.254Z,5.50
2017-12-14T23:19:57.784Z,5.50
2017-12-14T23:22:25.314Z,5.40
2017-12-14T23:24:53.635Z,5.20
2017-12-14T23:27:21.163Z,5.20
2017-12-14T23:29:48.723Z,5.10
2017-12-14T23:32:17.016Z,4.70
2017-12-14T23:34:44.647Z,4.70
2017-12-14T23:37:12.935Z,4.70
2017-12-14T23:39:41.228Z,4.60
2017-12-14T23:42:08.779Z,4.60
2017-12-14T23:44:37.259Z,4.60
2017-12-14T23:47:05.543Z,4.70
2017-12-14T23:49:35.079Z,4.70
2017-12-14T23:52:03.559Z,4.70
2017-12-14T23:54:31.089Z,4.80
2017-12-14T23:56:58.850Z,4.80
2017-12-14T23:59:26.378Z,4.80
